Time;durP1;ratioP1;P1;durP2;ratioP2;P2;SDS_P1;SDS_P2;PMS_P1;PMS_P2;Temp;Humidity;BMP_temperature;BMP_pressure;BME280_temperature;BME280_humidity;BME280_pressure;Samples;Min_cycle;Max_cycle;Signal;HPM_P1;HPM_P2
2023/04/26 00:02:21;;;;;;;5.85;1.42;;;;;;;-145.41;100.00;58600.66;4982979;28;20039;-72
2023/04/26 00:04:50;;;;;;;6.95;1.20;;;;;;;-145.41;100.00;58600.66;4983645;28;20047;-72
2023/04/26 00:07:16;;;;;;;4.95;1.20;;;;;;;-145.41;100.00;58600.66;4985095;28;20034;-72
2023/04/26 00:09:43;;;;;;;7.47;1.38;;;;;;;-145.41;100.00;58600.66;4981663;28;20034;-72
2023/04/26 00:12:10;;;;;;;8.52;1.25;;;;;;;-145.41;100.00;58600.66;4985467;28;20042;-72
2023/04/26 00:14:36;;;;;;;5.07;1.30;;;;;;;-145.41;100.00;58600.66;4977976;28;20401;-72
2023/04/26 00:17:03;;;;;;;6.35;1.23;;;;;;;-145.41;100.00;58600.66;4985126;28;20046;-72
2023/04/26 00:19:28;;;;;;;9.40;1.52;;;;;;;-145.41;100.00;58600.66;4981896;28;20109;-72
2023/04/26 00:21:53;;;;;;;5.70;1.15;;;;;;;-145.41;100.00;58600.66;4984645;28;20046;-72
2023/04/26 00:24:19;;;;;;;5.47;1.20;;;;;;;-145.41;100.00;58600.66;4984786;28;20113;-72
2023/04/26 00:26:44;;;;;;;9.35;1.83;;;;;;;-145.41;100.00;58600.66;4982161;28;20110;-72
2023/04/26 00:29:10;;;;;;;4.93;0.98;;;;;;;-145.41;100.00;58600.66;4972404;28;20493;-72
2023/04/26 00:31:35;;;;;;;5.65;1.13;;;;;;;-145.41;100.00;58600.66;4984133;28;20062;-72
2023/04/26 00:34:00;;;;;;;6.25;1.38;;;;;;;-145.41;100.00;58600.66;4972307;28;20030;-72
2023/04/26 00:36:26;;;;;;;5.40;1.00;;;;;;;-145.41;100.00;58600.66;4962629;28;20039;-72
2023/04/26 00:38:51;;;;;;;5.65;1.20;;;;;;;-145.41;100.00;58600.66;4980244;28;20408;-72
2023/04/26 00:41:17;;;;;;;7.05;1.38;;;;;;;-145.41;100.00;58600.66;4965037;28;20046;-72
2023/04/26 00:43:42;;;;;;;4.60;1.20;;;;;;;-145.41;100.00;58600.66;4973328;28;20507;-72
2023/04/26 00:46:08;;;;;;;7.75;1.70;;;;;;;-145.41;100.00;58600.66;4984305;28;20047;-72
2023/04/26 00:48:36;;;;;;;7.10;1.45;;;;;;;-145.41;100.00;58600.66;4982705;28;20045;-72
2023/04/26 00:51:01;;;;;;;9.02;1.67;;;;;;;-145.41;100.00;58600.66;4985304;28;20041;-72
2023/04/26 00:53:29;;;;;;;5.60;1.50;;;;;;;-145.41;100.00;58600.66;4984692;28;20038;-71
2023/04/26 00:55:54;;;;;;;9.73;1.73;;;;;;;-145.41;100.00;58600.66;4983706;28;20501;-72
2023/04/26 00:58:20;;;;;;;7.70;1.95;;;;;;;-145.41;100.00;58600.66;4984081;28;20077;-72
2023/04/26 01:00:45;;;;;;;7.28;1.75;;;;;;;-145.41;100.00;58600.66;4984664;28;20034;-72
2023/04/26 01:03:11;;;;;;;5.68;1.80;;;;;;;-145.41;100.00;58600.66;4981955;28;20045;-72
2023/04/26 01:05:37;;;;;;;8.30;2.17;;;;;;;-145.41;100.00;58600.66;4983354;28;20401;-72
2023/04/26 01:08:03;;;;;;;6.78;2.30;;;;;;;-145.41;100.00;58600.66;4978843;28;20117;-72
2023/04/26 01:10:33;;;;;;;7.53;2.38;;;;;;;-145.41;100.00;58600.66;4981874;28;20070;-72
2023/04/26 01:12:59;;;;;;;7.70;2.53;;;;;;;-145.41;100.00;58600.66;4984466;28;20034;-72
2023/04/26 01:15:27;;;;;;;7.13;2.35;;;;;;;-145.41;100.00;58600.66;4959198;28;20505;-72
2023/04/26 01:17:52;;;;;;;8.65;2.58;;;;;;;-145.41;100.00;58600.66;4983963;28;20038;-72
2023/04/26 01:20:17;;;;;;;7.68;2.30;;;;;;;-145.41;100.00;58600.66;4980709;28;20034;-72
2023/04/26 01:22:43;;;;;;;7.90;2.40;;;;;;;-145.41;100.00;58600.66;4983684;28;20038;-72
2023/04/26 01:25:11;;;;;;;5.35;2.20;;;;;;;-145.41;100.00;58600.66;4979539;28;20046;-72
2023/04/26 01:27:37;;;;;;;8.70;2.33;;;;;;;-145.41;100.00;58600.66;4967936;28;20034;-72
2023/04/26 01:30:03;;;;;;;6.13;2.08;;;;;;;-145.41;100.00;58600.66;4981267;28;20109;-72
2023/04/26 01:32:29;;;;;;;5.00;2.65;;;;;;;-145.41;100.00;58600.66;4982647;28;20061;-71
2023/04/26 01:34:56;;;;;;;8.05;2.60;;;;;;;-145.41;100.00;58600.66;4981958;28;20515;-72
2023/04/26 01:37:22;;;;;;;7.07;2.30;;;;;;;-145.41;100.00;58600.66;4982156;28;20031;-71
2023/04/26 01:39:47;;;;;;;7.15;2.45;;;;;;;-145.41;100.00;58600.66;4979819;28;20434;-72
2023/04/26 01:42:12;;;;;;;9.55;2.53;;;;;;;-145.41;100.00;58600.66;4973380;28;20129;-72
2023/04/26 01:44:38;;;;;;;7.82;2.85;;;;;;;-145.41;100.00;58600.66;4981757;28;20065;-71
2023/04/26 01:47:03;;;;;;;7.65;2.40;;;;;;;-145.41;100.00;58600.66;4982343;28;20038;-72
2023/04/26 01:49:29;;;;;;;8.20;3.35;;;;;;;-145.41;100.00;58600.66;4981456;28;20074;-72
2023/04/26 01:51:55;;;;;;;11.30;2.90;;;;;;;-145.41;100.00;58600.66;4981534;28;20546;-71
2023/04/26 01:54:22;;;;;;;7.25;4.00;;;;;;;-145.41;100.00;58600.66;4965522;28;20505;-72
2023/04/26 01:56:47;;;;;;;8.38;3.20;;;;;;;-145.41;100.00;58600.66;4973999;28;20038;-72
2023/04/26 01:59:13;;;;;;;7.00;3.10;;;;;;;-145.41;100.00;58600.66;4974836;28;20085;-71
2023/04/26 02:01:41;;;;;;;7.72;2.80;;;;;;;-145.41;100.00;58600.66;4983047;28;20042;-71
2023/04/26 02:04:09;;;;;;;6.68;2.60;;;;;;;-145.41;100.00;58600.66;4984301;28;20516;-71
2023/04/26 02:06:36;;;;;;;6.38;2.83;;;;;;;-145.41;100.00;58600.66;4963136;28;20063;-71
2023/04/26 02:09:02;;;;;;;8.30;3.03;;;;;;;-145.41;100.00;58600.66;4983528;28;20047;-72
2023/04/26 02:11:27;;;;;;;9.05;2.83;;;;;;;-145.41;100.00;58600.66;4987448;28;20033;-71
2023/04/26 02:13:53;;;;;;;8.70;2.65;;;;;;;-145.41;100.00;58600.66;4984235;28;20490;-72
2023/04/26 02:16:20;;;;;;;9.05;2.65;;;;;;;-145.41;100.00;58600.66;4967949;28;20113;-72
2023/04/26 02:18:46;;;;;;;8.10;2.78;;;;;;;-145.41;100.00;58600.66;4966999;28;20126;-72
2023/04/26 02:21:11;;;;;;;7.95;3.03;;;;;;;-145.41;100.00;58600.66;4969176;28;20042;-72
2023/04/26 02:23:37;;;;;;;6.47;2.53;;;;;;;-145.41;100.00;58600.66;4984840;28;20039;-72
2023/04/26 02:26:03;;;;;;;6.75;2.70;;;;;;;-145.41;100.00;58600.66;4974902;28;20034;-72
2023/04/26 02:28:28;;;;;;;8.02;2.10;;;;;;;-145.41;100.00;58600.66;4985819;28;20412;-71
2023/04/26 02:30:55;;;;;;;6.80;2.47;;;;;;;-145.41;100.00;58600.66;4967485;28;20042;-71
2023/04/26 02:33:21;;;;;;;12.65;2.60;;;;;;;-145.41;100.00;58600.66;4959929;28;20370;-71
2023/04/26 02:35:47;;;;;;;9.45;2.72;;;;;;;-145.41;100.00;58600.66;4985196;28;20506;-72
2023/04/26 02:38:14;;;;;;;6.57;2.45;;;;;;;-145.41;100.00;58600.66;4973782;28;20521;-71
2023/04/26 02:40:39;;;;;;;8.40;2.10;;;;;;;-145.41;100.00;58600.66;4967315;28;20050;-72
2023/04/26 02:43:06;;;;;;;9.73;3.28;;;;;;;-145.41;100.00;58600.66;4971211;28;20497;-72
2023/04/26 02:45:31;;;;;;;6.45;2.80;;;;;;;-145.41;100.00;58600.66;4968195;28;20027;-72
2023/04/26 02:47:57;;;;;;;6.10;2.28;;;;;;;-145.41;100.00;58600.66;4969972;28;20573;-72
2023/04/26 02:50:22;;;;;;;7.68;2.40;;;;;;;-145.41;100.00;58600.66;4970651;28;20127;-72
2023/04/26 02:52:49;;;;;;;8.43;2.30;;;;;;;-145.41;100.00;58600.66;4984618;23;20088;-71
2023/04/26 02:55:14;;;;;;;7.22;2.10;;;;;;;-145.41;100.00;58600.66;5002727;28;20074;-71
2023/04/26 02:57:39;;;;;;;7.85;2.33;;;;;;;-145.41;100.00;58600.66;4998832;28;20025;-71
2023/04/26 03:00:07;;;;;;;5.78;2.10;;;;;;;-145.41;100.00;58600.66;4994669;28;20460;-71
2023/04/26 03:02:33;;;;;;;9.23;3.67;;;;;;;-145.41;100.00;58600.66;4982934;28;20044;-71
2023/04/26 03:04:59;;;;;;;13.90;3.08;;;;;;;-145.41;100.00;58600.66;4965385;28;20739;-71
2023/04/26 03:07:25;;;;;;;10.63;2.38;;;;;;;-145.41;100.00;58600.66;4973037;28;20034;-71
2023/04/26 03:09:50;;;;;;;8.07;2.33;;;;;;;-145.41;100.00;58600.66;4962034;28;20039;-71
2023/04/26 03:12:16;;;;;;;11.13;2.80;;;;;;;-145.41;100.00;58600.66;4970732;28;20520;-71
2023/04/26 03:14:41;;;;;;;8.05;2.80;;;;;;;-145.41;100.00;58600.66;4986079;28;20039;-71
2023/04/26 03:17:07;;;;;;;8.38;2.10;;;;;;;-145.41;100.00;58600.66;4973622;28;20046;-71
2023/04/26 03:19:33;;;;;;;9.55;2.38;;;;;;;-145.41;100.00;58600.66;4959801;28;20031;-71
2023/04/26 03:22:00;;;;;;;9.48;2.83;;;;;;;-145.41;100.00;58600.66;4974395;28;20035;-71
2023/04/26 03:24:25;;;;;;;7.13;2.17;;;;;;;-145.41;100.00;58600.66;4976418;28;20038;-71
2023/04/26 03:26:51;;;;;;;8.15;2.30;;;;;;;-145.41;100.00;58600.66;4971668;28;20031;-71
2023/04/26 03:29:17;;;;;;;8.50;2.53;;;;;;;-145.41;100.00;58600.66;4958378;28;20034;-71
2023/04/26 03:31:43;;;;;;;8.32;2.70;;;;;;;-145.41;100.00;58600.66;4974413;28;20037;-71
2023/04/26 03:34:09;;;;;;;7.97;2.58;;;;;;;-145.41;100.00;58600.66;4958050;28;20078;-71
2023/04/26 03:36:35;;;;;;;8.63;2.38;;;;;;;-145.41;100.00;58600.66;4983055;28;20054;-71
2023/04/26 03:39:03;;;;;;;7.72;2.35;;;;;;;-145.41;100.00;58600.66;4966393;28;20065;-71
2023/04/26 03:41:28;;;;;;;9.75;2.65;;;;;;;-145.41;100.00;58600.66;4978796;28;20026;-71
2023/04/26 03:43:58;;;;;;;11.50;2.50;;;;;;;-145.41;100.00;58600.66;4976846;28;20042;-71
2023/04/26 03:46:23;;;;;;;8.00;2.80;;;;;;;-145.41;100.00;58600.66;4975268;28;20139;-71
2023/04/26 03:48:49;;;;;;;7.32;3.10;;;;;;;-145.41;100.00;58600.66;4962170;28;20030;-71
2023/04/26 03:51:15;;;;;;;10.65;3.17;;;;;;;-145.41;100.00;58600.66;4973511;28;20151;-71
2023/04/26 03:53:40;;;;;;;11.82;4.03;;;;;;;-145.41;100.00;58600.66;4967523;28;20034;-70
2023/04/26 03:56:07;;;;;;;7.88;3.50;;;;;;;-145.41;100.00;58600.66;4972315;28;20485;-71
2023/04/26 03:58:32;;;;;;;10.48;3.78;;;;;;;-145.41;100.00;58600.66;4973134;28;20046;-70
2023/04/26 04:00:58;;;;;;;9.57;3.35;;;;;;;-145.41;100.00;58600.66;4951975;28;20058;-70
2023/04/26 04:03:24;;;;;;;10.13;3.67;;;;;;;-145.41;100.00;58600.66;4972688;28;20046;-71
2023/04/26 04:05:50;;;;;;;17.00;4.03;;;;;;;-145.41;100.00;58600.66;4964141;28;20565;-71
2023/04/26 04:08:16;;;;;;;10.15;3.28;;;;;;;-145.41;100.00;58600.66;4978078;28;20117;-71
2023/04/26 04:10:41;;;;;;;16.45;3.38;;;;;;;-145.41;100.00;58600.66;4992257;28;20379;-71
2023/04/26 04:13:08;;;;;;;7.05;2.65;;;;;;;-145.41;100.00;58600.66;4967295;28;20056;-71
2023/04/26 04:15:34;;;;;;;8.20;2.10;;;;;;;-145.41;100.00;58600.66;4953973;28;20035;-75
2023/04/26 04:17:59;;;;;;;8.20;2.17;;;;;;;-145.41;100.00;58600.66;4973078;28;20047;-71
2023/04/26 04:20:25;;;;;;;8.13;2.35;;;;;;;-145.41;100.00;58600.66;4977911;28;20038;-72
2023/04/26 04:22:53;;;;;;;7.22;2.92;;;;;;;-145.41;100.00;58600.66;4978256;28;20034;-70
2023/04/26 04:25:21;;;;;;;8.88;3.30;;;;;;;-145.41;100.00;58600.66;4989760;28;20085;-71
2023/04/26 04:27:47;;;;;;;10.80;2.63;;;;;;;-145.41;100.00;58600.66;4977120;28;20575;-71
2023/04/26 04:30:13;;;;;;;6.32;2.55;;;;;;;-145.41;100.00;58600.66;4973950;28;20041;-71
2023/04/26 04:32:45;;;;;;;9.57;2.78;;;;;;;-145.41;100.00;58600.66;4965386;28;20505;-71
2023/04/26 04:35:13;;;;;;;9.15;3.47;;;;;;;-145.41;100.00;58600.66;4967010;28;20041;-71
2023/04/26 04:37:38;;;;;;;6.97;2.58;;;;;;;-145.41;100.00;58600.66;4969998;28;20057;-72
2023/04/26 04:40:04;;;;;;;10.88;3.80;;;;;;;-145.41;100.00;58600.66;4974771;28;20129;-71
2023/04/26 04:42:33;;;;;;;12.52;3.20;;;;;;;-145.41;100.00;58600.66;4972420;28;20459;-71
2023/04/26 04:45:00;;;;;;;9.68;3.20;;;;;;;-145.41;100.00;58600.66;4973300;28;20519;-71
2023/04/26 04:47:26;;;;;;;9.23;2.88;;;;;;;-145.41;100.00;58600.66;4972903;28;20027;-72
2023/04/26 04:49:52;;;;;;;13.93;3.40;;;;;;;-145.41;100.00;58600.66;4983168;28;20044;-71
2023/04/26 04:52:20;;;;;;;12.20;2.75;;;;;;;-145.41;100.00;58600.66;4966172;28;20042;-71
2023/04/26 04:54:47;;;;;;;10.07;2.95;;;;;;;-145.41;100.00;58600.66;4964808;28;20031;-71
2023/04/26 04:57:15;;;;;;;12.05;3.20;;;;;;;-145.41;100.00;58600.66;4968250;28;20034;-70
2023/04/26 04:59:41;;;;;;;6.55;2.28;;;;;;;-145.41;100.00;58600.66;4971830;28;20061;-71
2023/04/26 05:02:06;;;;;;;11.70;3.22;;;;;;;-145.41;100.00;58600.66;4982236;28;20113;-71
2023/04/26 05:04:33;;;;;;;13.55;3.08;;;;;;;-145.41;100.00;58600.66;4980772;28;20512;-71
2023/04/26 05:06:59;;;;;;;9.63;3.05;;;;;;;-145.41;100.00;58600.66;4980685;28;20412;-71
2023/04/26 05:09:25;;;;;;;7.60;2.33;;;;;;;-145.41;100.00;58600.66;4973414;28;20130;-71
2023/04/26 05:11:51;;;;;;;7.70;2.08;;;;;;;-145.41;100.00;58600.66;4967216;28;20037;-71
2023/04/26 05:14:16;;;;;;;8.77;2.55;;;;;;;-145.41;100.00;58600.66;4974511;28;20470;-71
2023/04/26 05:16:42;;;;;;;8.95;2.45;;;;;;;-145.41;100.00;58600.66;4974053;28;20383;-71
2023/04/26 05:19:07;;;;;;;6.97;2.42;;;;;;;-145.41;100.00;58600.66;4958113;28;20071;-72
2023/04/26 05:21:33;;;;;;;9.90;3.00;;;;;;;-145.41;100.00;58600.66;4980953;28;20037;-71
2023/04/26 05:23:58;;;;;;;9.30;2.92;;;;;;;-145.41;100.00;58600.66;4974555;28;20508;-71
2023/04/26 05:26:25;;;;;;;10.38;3.17;;;;;;;-145.41;100.00;58600.66;4971688;28;20061;-71
2023/04/26 05:28:56;;;;;;;9.32;3.00;;;;;;;-145.41;100.00;58600.66;4984114;28;20054;-71
2023/04/26 05:31:34;;;;;;;10.30;2.55;;;;;;;-145.41;100.00;58600.66;4966833;28;20030;-71
2023/04/26 05:34:20;;;;;;;7.85;2.45;;;;;;;-145.41;100.00;58600.66;4981354;28;20108;-72
2023/04/26 05:36:50;;;;;;;10.02;2.95;;;;;;;-145.41;100.00;58600.66;4963090;28;20030;-71
2023/04/26 05:39:16;;;;;;;4.85;2.40;;;;;;;-145.41;100.00;58600.66;4973832;28;20041;-71
2023/04/26 05:41:42;;;;;;;14.73;2.65;;;;;;;-145.41;100.00;58600.66;4982665;28;20027;-72
2023/04/26 05:44:07;;;;;;;8.45;2.97;;;;;;;-145.41;100.00;58600.66;4964261;28;20034;-71
2023/04/26 05:46:33;;;;;;;13.25;3.38;;;;;;;-145.41;100.00;58600.66;4973690;28;20085;-71
2023/04/26 05:48:58;;;;;;;10.60;2.78;;;;;;;-145.41;100.00;58600.66;4993487;28;20492;-72
2023/04/26 05:51:23;;;;;;;9.10;2.45;;;;;;;-145.41;100.00;58600.66;4984325;28;20045;-72
2023/04/26 05:53:49;;;;;;;15.98;2.80;;;;;;;-145.41;100.00;58600.66;4976933;28;20045;-71
2023/04/26 05:56:15;;;;;;;12.50;2.75;;;;;;;-145.41;100.00;58600.66;4967206;28;20351;-71
2023/04/26 05:58:41;;;;;;;11.93;2.72;;;;;;;-145.41;100.00;58600.66;4986036;28;20046;-71
2023/04/26 06:01:06;;;;;;;11.07;3.70;;;;;;;-145.41;100.00;58600.66;4976659;28;20528;-72
2023/04/26 06:03:32;;;;;;;15.27;3.45;;;;;;;-145.41;100.00;58600.66;4975815;28;20042;-72
2023/04/26 06:05:58;;;;;;;8.65;2.47;;;;;;;-145.41;100.00;58600.66;4973846;28;20305;-72
2023/04/26 06:08:23;;;;;;;12.90;3.33;;;;;;;-145.41;100.00;58600.66;4966974;28;20037;-71
2023/04/26 06:10:49;;;;;;;13.80;2.55;;;;;;;-145.41;100.00;58600.66;4974053;28;20030;-72
2023/04/26 06:13:15;;;;;;;12.60;2.80;;;;;;;-145.41;100.00;58600.66;4965362;28;20031;-71
2023/04/26 06:15:41;;;;;;;15.13;4.47;;;;;;;-145.41;100.00;58600.66;4973839;28;20069;-72
2023/04/26 06:18:07;;;;;;;15.63;6.43;;;;;;;-145.41;100.00;58600.66;4983664;28;20139;-70
2023/04/26 06:20:32;;;;;;;7.57;2.95;;;;;;;-145.41;100.00;58600.66;4962314;28;20037;-72
2023/04/26 06:22:58;;;;;;;8.55;2.55;;;;;;;-145.41;100.00;58600.66;4983501;28;20043;-71
2023/04/26 06:25:23;;;;;;;12.02;2.47;;;;;;;-145.41;100.00;58600.66;4973489;28;20050;-71
2023/04/26 06:27:49;;;;;;;13.88;2.80;;;;;;;-145.41;100.00;58600.66;4949041;28;20113;-72
2023/04/26 06:30:14;;;;;;;14.00;3.28;;;;;;;-145.41;100.00;58600.66;4965452;28;20030;-72
2023/04/26 06:32:44;;;;;;;7.10;2.65;;;;;;;-145.41;100.00;58600.66;4965859;28;20026;-72
2023/04/26 06:35:10;;;;;;;11.05;2.63;;;;;;;-145.41;100.00;58600.66;4962362;28;20045;-72
2023/04/26 06:37:36;;;;;;;14.35;3.38;;;;;;;-145.41;100.00;58600.66;4988646;28;20038;-72
2023/04/26 06:40:02;;;;;;;7.30;2.42;;;;;;;-145.41;100.00;58600.66;4969197;28;20080;-72
2023/04/26 06:42:30;;;;;;;9.32;3.10;;;;;;;-145.41;100.00;58600.66;4975499;28;20066;-72
2023/04/26 06:45:19;;;;;;;8.57;2.80;;;;;;;-145.41;100.00;58600.66;4976909;28;20038;-72
2023/04/26 06:47:45;;;;;;;6.78;2.47;;;;;;;-145.41;100.00;58600.66;4985114;28;20035;-71
2023/04/26 06:50:11;;;;;;;14.07;3.72;;;;;;;-145.41;100.00;58600.66;4969298;28;20034;-71
2023/04/26 06:52:36;;;;;;;8.05;2.58;;;;;;;-145.41;100.00;58600.66;4982823;28;20066;-72
2023/04/26 06:55:03;;;;;;;10.30;2.67;;;;;;;-145.41;100.00;58600.66;4987186;28;20513;-72
2023/04/26 06:57:28;;;;;;;9.43;1.90;;;;;;;-145.41;100.00;58600.66;4972730;28;20046;-71
2023/04/26 06:59:54;;;;;;;11.27;2.13;;;;;;;-145.41;100.00;58600.66;4984747;28;20035;-72
2023/04/26 07:02:19;;;;;;;12.27;3.17;;;;;;;-145.41;100.00;58600.66;4984658;28;20608;-72
2023/04/26 07:04:45;;;;;;;7.00;2.40;;;;;;;-145.41;100.00;58600.66;4985005;28;20074;-72
2023/04/26 07:07:10;;;;;;;12.30;2.10;;;;;;;-145.41;100.00;58600.66;4984325;28;20093;-72
2023/04/26 07:09:36;;;;;;;11.90;2.35;;;;;;;-145.41;100.00;58600.66;4996569;28;20038;-71
2023/04/26 07:12:01;;;;;;;12.68;2.33;;;;;;;-145.41;100.00;58600.66;4993475;28;20524;-72
2023/04/26 07:14:27;;;;;;;20.08;3.85;;;;;;;-145.41;100.00;58600.66;4994225;28;20446;-71
2023/04/26 07:16:52;;;;;;;7.72;2.17;;;;;;;-145.41;100.00;58600.66;4991046;28;20093;-71
2023/04/26 07:19:18;;;;;;;9.77;1.95;;;;;;;-145.41;100.00;58600.66;4986322;28;20049;-72
2023/04/26 07:21:43;;;;;;;8.63;2.35;;;;;;;-145.41;100.00;58600.66;4983506;28;20046;-72
2023/04/26 07:24:09;;;;;;;8.10;1.70;;;;;;;-145.41;100.00;58600.66;4991147;28;20045;-72
2023/04/26 07:26:35;;;;;;;10.65;1.92;;;;;;;-145.41;100.00;58600.66;4998498;28;20034;-71
2023/04/26 07:29:01;;;;;;;8.45;2.30;;;;;;;-145.41;100.00;58600.66;4993652;28;20503;-71
2023/04/26 07:31:26;;;;;;;7.25;1.67;;;;;;;-145.41;100.00;58600.66;4975262;28;20043;-71
2023/04/26 07:33:51;;;;;;;5.97;1.60;;;;;;;-145.41;100.00;58600.66;4951185;28;20041;-71
2023/04/26 07:36:17;;;;;;;9.90;2.42;;;;;;;-145.41;100.00;58600.66;4982245;28;20035;-71
2023/04/26 07:38:42;;;;;;;8.88;1.50;;;;;;;-145.41;100.00;58600.66;5000264;28;20864;-72
2023/04/26 07:41:07;;;;;;;8.10;2.00;;;;;;;-145.41;100.00;58600.66;4992037;28;20725;-72
2023/04/26 07:43:33;;;;;;;12.40;1.80;;;;;;;-145.41;100.00;58600.66;4990826;28;20069;-72
2023/04/26 07:46:01;;;;;;;7.05;1.58;;;;;;;-145.41;100.00;58600.66;4989191;28;20061;-72
2023/04/26 07:48:26;;;;;;;6.80;1.45;;;;;;;-145.41;100.00;58600.66;4987593;28;20042;-72
2023/04/26 07:50:52;;;;;;;9.85;1.60;;;;;;;-145.41;100.00;58600.66;4982931;28;20040;-71
2023/04/26 07:53:17;;;;;;;8.00;1.40;;;;;;;-145.41;100.00;58600.66;4991678;28;20133;-71
2023/04/26 07:55:42;;;;;;;6.85;1.45;;;;;;;-145.41;100.00;58600.66;4984650;28;20062;-72
2023/04/26 07:58:11;;;;;;;6.47;1.73;;;;;;;-145.41;100.00;58600.66;4993211;28;20042;-71
2023/04/26 08:00:37;;;;;;;9.27;1.70;;;;;;;-145.41;100.00;58600.66;4968129;28;20453;-72
2023/04/26 08:03:03;;;;;;;6.97;1.70;;;;;;;-145.41;100.00;58600.66;4974623;28;20042;-72
2023/04/26 08:05:28;;;;;;;8.60;1.63;;;;;;;-145.41;100.00;58600.66;4990339;28;20033;-72
2023/04/26 08:07:53;;;;;;;7.75;1.33;;;;;;;-145.41;100.00;58600.66;4994708;28;20097;-71
2023/04/26 08:10:19;;;;;;;7.72;2.55;;;;;;;-145.41;100.00;58600.66;4981927;28;20030;-72
2023/04/26 08:12:44;;;;;;;17.65;2.90;;;;;;;-145.41;100.00;58600.66;4983250;28;20046;-72
2023/04/26 08:15:10;;;;;;;7.68;1.40;;;;;;;-145.41;100.00;58600.66;4983746;28;20081;-72
2023/04/26 08:17:36;;;;;;;8.98;1.92;;;;;;;-145.41;100.00;58600.66;4985383;28;20069;-72
2023/04/26 08:20:03;;;;;;;6.70;1.42;;;;;;;-145.41;100.00;58600.66;4983220;28;20066;-72
2023/04/26 08:22:29;;;;;;;6.45;1.75;;;;;;;-145.41;100.00;58600.66;4984751;28;20646;-72
2023/04/26 08:24:54;;;;;;;8.02;1.65;;;;;;;-145.41;100.00;58600.66;4983884;28;20050;-72
2023/04/26 08:27:20;;;;;;;4.78;1.08;;;;;;;-145.41;100.00;58600.66;4985609;28;20034;-72
2023/04/26 08:29:46;;;;;;;7.63;1.33;;;;;;;-145.41;100.00;58600.66;4987735;28;20966;-72
2023/04/26 08:32:12;;;;;;;6.43;1.52;;;;;;;-145.41;100.00;58600.66;4983404;28;20133;-72
2023/04/26 08:34:37;;;;;;;9.18;1.77;;;;;;;-145.41;100.00;58600.66;4989704;28;20492;-72
2023/04/26 08:37:04;;;;;;;6.30;1.48;;;;;;;-145.41;100.00;58600.66;4996235;28;20070;-72
2023/04/26 08:39:29;;;;;;;4.75;1.60;;;;;;;-145.41;100.00;58600.66;4989787;28;20061;-72
2023/04/26 08:42:04;;;;;;;6.47;1.73;;;;;;;-145.41;100.00;58600.66;4990392;28;20072;-72
2023/04/26 08:44:34;;;;;;;5.85;1.35;;;;;;;-145.41;100.00;58600.66;4984429;28;20553;-72
2023/04/26 08:47:08;;;;;;;5.75;1.25;;;;;;;-145.41;100.00;58600.66;4989060;28;20104;-72
2023/04/26 08:49:42;;;;;;;7.47;1.40;;;;;;;-145.41;100.00;58600.66;4981928;28;20042;-72
2023/04/26 08:52:10;;;;;;;4.95;1.38;;;;;;;-145.41;100.00;58600.66;4968046;28;20054;-72
2023/04/26 08:54:36;;;;;;;7.18;1.50;;;;;;;-145.41;100.00;58600.66;4984562;28;20038;-72
2023/04/26 08:57:02;;;;;;;6.30;1.50;;;;;;;-145.41;100.00;58600.66;4984505;28;20046;-72
2023/04/26 08:59:30;;;;;;;5.63;1.52;;;;;;;-145.41;100.00;58600.66;4983728;28;20030;-72
2023/04/26 09:01:56;;;;;;;5.53;1.30;;;;;;;-145.41;100.00;58600.66;4995494;28;20103;-72
2023/04/26 09:04:21;;;;;;;6.93;1.65;;;;;;;-145.41;100.00;58600.66;4989308;28;20176;-72
2023/04/26 09:06:49;;;;;;;6.45;1.65;;;;;;;-145.41;100.00;58600.66;5011624;23;20563;-77
2023/04/26 09:09:18;;;;;;;5.55;1.48;;;;;;;-145.41;100.00;58600.66;5008779;28;20519;-77
2023/04/26 09:11:52;;;;;;;6.57;1.40;;;;;;;-145.41;100.00;58600.66;5011554;28;20041;-78
2023/04/26 09:14:18;;;;;;;5.13;1.38;;;;;;;-145.41;100.00;58600.66;5018042;28;20565;-78
2023/04/26 09:16:43;;;;;;;9.32;1.58;;;;;;;-145.41;100.00;58600.66;5002958;28;20066;-77
2023/04/26 09:19:09;;;;;;;7.55;1.77;;;;;;;-145.41;100.00;58600.66;4993843;28;20408;-77
2023/04/26 09:21:41;;;;;;;8.32;1.77;;;;;;;-145.41;100.00;58600.66;4984201;28;20046;-76
2023/04/26 09:24:07;;;;;;;7.60;1.30;;;;;;;-145.41;100.00;58600.66;4989479;28;20042;-77
2023/04/26 09:26:32;;;;;;;8.35;1.95;;;;;;;-145.41;100.00;58600.66;4991652;28;20030;-77
2023/04/26 09:29:19;;;;;;;8.07;1.55;;;;;;;-145.41;100.00;58600.66;4993372;28;20122;-77
2023/04/26 09:31:47;;;;;;;8.13;1.42;;;;;;;-145.41;100.00;58600.66;4984175;28;20116;-77
2023/04/26 09:34:13;;;;;;;6.93;1.67;;;;;;;-145.41;100.00;58600.66;4999419;28;20048;-77
2023/04/26 09:36:55;;;;;;;8.45;1.60;;;;;;;-145.41;100.00;58600.66;4995220;28;20054;-77
2023/04/26 09:39:34;;;;;;;7.25;1.45;;;;;;;-145.41;100.00;58600.66;4996159;28;20050;-78
2023/04/26 09:42:00;;;;;;;3.95;1.58;;;;;;;-145.41;100.00;58600.66;4996855;28;20049;-77
2023/04/26 09:44:28;;;;;;;9.05;1.90;;;;;;;-145.41;100.00;58600.66;4993327;28;20050;-78
2023/04/26 09:47:10;;;;;;;8.68;2.03;;;;;;;-145.41;100.00;58600.66;4991720;28;20129;-76
2023/04/26 09:49:50;;;;;;;9.65;2.10;;;;;;;-145.41;100.00;58600.66;4989138;28;20042;-77
2023/04/26 09:52:19;;;;;;;8.68;2.00;;;;;;;-145.41;100.00;58600.66;4992262;28;20042;-77
2023/04/26 09:54:50;;;;;;;8.30;1.58;;;;;;;-145.41;100.00;58600.66;4992768;28;20034;-77
2023/04/26 09:57:17;;;;;;;5.07;1.13;;;;;;;-145.41;100.00;58600.66;4989791;28;20492;-77
2023/04/26 09:59:43;;;;;;;6.53;1.88;;;;;;;-145.41;100.00;58600.66;4991977;28;20050;-77
2023/04/26 10:02:18;;;;;;;8.32;1.70;;;;;;;-145.41;100.00;58600.66;4985883;28;20038;-77
2023/04/26 10:04:46;;;;;;;8.10;1.45;;;;;;;-145.41;100.00;58600.66;4991450;28;20035;-77
2023/04/26 10:07:12;;;;;;;8.00;1.75;;;;;;;-145.41;100.00;58600.66;4994800;28;20112;-78
2023/04/26 10:09:40;;;;;;;6.90;1.85;;;;;;;-145.41;100.00;58600.66;4974615;28;20065;-77
2023/04/26 10:12:06;;;;;;;6.40;1.58;;;;;;;-145.41;100.00;58600.66;4994883;28;20052;-77
2023/04/26 10:14:33;;;;;;;7.25;1.20;;;;;;;-145.41;100.00;58600.66;4997617;28;20070;-78
2023/04/26 10:16:58;;;;;;;5.93;1.30;;;;;;;-145.41;100.00;58600.66;4994294;28;20035;-77
2023/04/26 10:19:25;;;;;;;8.73;2.15;;;;;;;-145.41;100.00;58600.66;4995190;28;20065;-77
2023/04/26 10:21:52;;;;;;;7.95;1.38;;;;;;;-145.41;100.00;58600.66;4981826;28;20053;-77
2023/04/26 10:24:18;;;;;;;4.30;1.60;;;;;;;-145.41;100.00;58600.66;4998987;28;20081;-77
2023/04/26 10:26:55;;;;;;;9.00;1.98;;;;;;;-145.41;100.00;58600.66;5000889;28;20034;-77
2023/04/26 10:29:24;;;;;;;5.30;1.33;;;;;;;-145.41;100.00;58600.66;4966733;28;20047;-78
2023/04/26 10:32:08;;;;;;;8.65;1.27;;;;;;;-145.41;100.00;58600.66;4996331;28;20129;-77
2023/04/26 10:34:35;;;;;;;5.80;1.23;;;;;;;-145.41;100.00;58600.66;4997744;28;20098;-77
2023/04/26 10:37:15;;;;;;;7.10;1.67;;;;;;;-145.41;100.00;58600.66;4999277;28;20129;-78
2023/04/26 10:39:42;;;;;;;7.30;1.67;;;;;;;-145.41;100.00;58600.66;4978913;28;20042;-77
2023/04/26 10:42:21;;;;;;;8.15;1.88;;;;;;;-145.41;100.00;58600.66;4998159;28;20034;-78
2023/04/26 10:44:48;;;;;;;8.00;2.42;;;;;;;-145.41;100.00;58600.66;4995310;28;20041;-78
2023/04/26 10:47:30;;;;;;;7.78;1.58;;;;;;;-145.41;100.00;58600.66;4989348;28;20101;-77
2023/04/26 10:50:01;;;;;;;8.60;1.50;;;;;;;-145.41;100.00;58600.66;4990596;28;20271;-77
2023/04/26 10:52:26;;;;;;;4.18;1.10;;;;;;;-145.41;100.00;58600.66;4993549;28;20050;-78
2023/04/26 10:54:54;;;;;;;7.78;1.20;;;;;;;-145.41;100.00;58600.66;5003350;28;20413;-78
2023/04/26 10:57:20;;;;;;;6.05;1.50;;;;;;;-145.41;100.00;58600.66;4998935;28;20034;-77
2023/04/26 11:00:09;;;;;;;6.35;1.40;;;;;;;-145.41;100.00;58600.66;4998905;28;20050;-77
2023/04/26 11:02:56;;;;;;;8.27;1.38;;;;;;;-145.41;100.00;58600.66;4992345;28;20042;-79
2023/04/26 11:05:39;;;;;;;6.70;1.40;;;;;;;-145.41;100.00;58600.66;4994516;28;20094;-77
2023/04/26 11:08:25;;;;;;;8.85;2.05;;;;;;;-145.41;100.00;58600.66;4989866;28;20035;-77